Terminal Aerodrome Forecast
Issued by NWS

Home | Current Version | Previous Version | Text Only | Print | Product List | Glossary On
Versions: 1 2 3 4 5 6 7 8 9 10 11 12 13 14 15 16 17 18 19 20
000
FTUS41 KCAR 021734
TAFFVE
TAF
KFVE 021734Z 0218/0318 23014G21KT P6SM OVC040
      TEMPO 0218/0220 OVC025
     FM030200 24009KT P6SM BKN250
     FM030800 24009KT P6SM BKN020
     FM031000 25010KT P6SM BKN035=

USA.gov is the U.S. government's official web portal to all federal, state and local government web resources and services.